createdAt,value
2024-01-22T00:00:32.024Z,3.13
2024-01-22T00:02:58.745Z,5.55
2024-01-22T00:05:25.377Z,4.85
2024-01-22T00:07:51.965Z,3.22
2024-01-22T00:10:18.532Z,4.07
2024-01-22T00:12:45.124Z,2.35
2024-01-22T00:15:12.456Z,4.07
2024-01-22T00:17:39.160Z,3.85
2024-01-22T00:20:06.836Z,4.63
2024-01-22T00:22:33.377Z,3.70
2024-01-22T00:25:00.051Z,3.75
2024-01-22T00:27:26.642Z,5.43
2024-01-22T00:29:53.281Z,4.95
2024-01-22T00:32:19.915Z,6.07
2024-01-22T00:34:46.984Z,3.17
2024-01-22T00:37:13.686Z,7.30
2024-01-22T00:39:40.455Z,6.15
2024-01-22T00:42:07.079Z,5.90
2024-01-22T00:44:33.758Z,3.47
2024-01-22T00:47:00.361Z,3.95
2024-01-22T00:49:27.024Z,4.60
2024-01-22T00:51:53.550Z,3.15
2024-01-22T00:54:20.616Z,3.88
2024-01-22T00:56:47.225Z,3.90
2024-01-22T00:59:13.909Z,5.72
2024-01-22T01:01:40.516Z,3.85
2024-01-22T01:04:07.117Z,2.45
2024-01-22T01:06:33.705Z,3.42
2024-01-22T01:09:00.293Z,3.88
2024-01-22T01:11:26.900Z,4.45
2024-01-22T01:13:53.503Z,4.82
2024-01-22T01:16:20.093Z,4.72
2024-01-22T01:18:46.749Z,5.00
2024-01-22T01:21:13.475Z,2.72
2024-01-22T01:23:40.288Z,2.78
2024-01-22T01:26:06.959Z,3.70
2024-01-22T01:28:33.553Z,3.33
2024-01-22T01:31:00.080Z,5.80
2024-01-22T01:33:26.782Z,3.85
2024-01-22T01:35:53.456Z,3.25
2024-01-22T01:38:20.004Z,2.90
2024-01-22T01:40:46.537Z,5.50
2024-01-22T01:43:16.248Z,2.63
2024-01-22T01:45:42.809Z,6.55
2024-01-22T01:48:09.854Z,3.47
2024-01-22T01:50:36.527Z,4.05
2024-01-22T01:53:04.579Z,3.30
2024-01-22T01:55:31.824Z,5.00
2024-01-22T01:58:05.404Z,2.38
2024-01-22T02:00:33.122Z,3.13
2024-01-22T02:02:59.884Z,3.45
2024-01-22T02:05:26.751Z,3.28
2024-01-22T02:07:53.425Z,2.97
2024-01-22T02:10:20.037Z,4.35
2024-01-22T02:12:47.083Z,7.57
2024-01-22T02:15:13.824Z,4.00
2024-01-22T02:17:40.631Z,3.70
2024-01-22T02:20:08.942Z,3.08
2024-01-22T02:22:35.510Z,4.93
2024-01-22T02:25:02.143Z,2.15
2024-01-22T02:27:28.829Z,2.47
2024-01-22T02:29:55.409Z,3.83
2024-01-22T02:32:21.945Z,2.97
2024-01-22T02:34:48.613Z,3.83
2024-01-22T02:37:18.056Z,2.20
2024-01-22T02:39:44.743Z,2.67
2024-01-22T02:42:11.720Z,5.55
2024-01-22T02:44:38.405Z,4.90
2024-01-22T02:47:05.122Z,4.85
2024-01-22T02:49:32.202Z,3.33
2024-01-22T02:51:58.920Z,2.35
2024-01-22T02:54:25.453Z,2.40
2024-01-22T02:56:52.061Z,2.80
2024-01-22T02:59:20.186Z,2.40
2024-01-22T03:01:46.935Z,2.47
2024-01-22T03:04:13.641Z,3.45
2024-01-22T03:06:40.558Z,2.40
2024-01-22T03:09:07.984Z,1.88
2024-01-22T03:11:34.586Z,3.83
2024-01-22T03:14:01.894Z,1.98
2024-01-22T03:16:28.465Z,4.07
2024-01-22T03:18:55.043Z,2.05
2024-01-22T03:21:21.767Z,3.90
2024-01-22T03:23:48.418Z,2.00
2024-01-22T03:26:21.916Z,2.88
2024-01-22T03:28:52.532Z,2.40
2024-01-22T03:33:53.861Z,1.67
2024-01-22T03:36:21.777Z,2.85
2024-01-22T03:38:48.382Z,3.60
2024-01-22T03:41:15.198Z,2.13
2024-01-22T03:43:45.290Z,2.08
2024-01-22T03:46:13.225Z,2.50
2024-01-22T03:48:40.299Z,2.42
2024-01-22T03:51:07.368Z,3.67
2024-01-22T03:53:33.969Z,2.20
2024-01-22T03:56:05.250Z,4.95
2024-01-22T03:58:34.152Z,2.25
2024-01-22T04:01:02.290Z,2.20
2024-01-22T04:03:29.264Z,1.50
2024-01-22T04:05:56.004Z,2.03
2024-01-22T04:08:23.269Z,3.33
2024-01-22T04:10:50.196Z,1.90
2024-01-22T04:13:16.746Z,2.10
2024-01-22T04:15:43.386Z,2.90
2024-01-22T04:18:10.206Z,1.95
2024-01-22T04:20:36.890Z,2.38
2024-01-22T04:23:03.587Z,2.97
2024-01-22T04:25:30.147Z,2.28
2024-01-22T04:27:57.854Z,1.50
2024-01-22T04:30:24.631Z,3.58
2024-01-22T04:32:52.031Z,1.30
2024-01-22T04:35:18.725Z,3.05
2024-01-22T04:37:45.315Z,2.08
2024-01-22T04:40:16.115Z,4.53
2024-01-22T04:45:09.976Z,1.50
2024-01-22T04:47:37.528Z,2.67
2024-01-22T04:50:05.349Z,2.35
2024-01-22T04:52:32.452Z,2.28
2024-01-22T04:55:05.819Z,3.40
2024-01-22T04:57:40.577Z,2.50
2024-01-22T05:00:08.521Z,3.60
2024-01-22T05:05:17.605Z,3.35
2024-01-22T05:07:44.327Z,2.03
2024-01-22T05:10:11.128Z,2.47
2024-01-22T05:12:38.504Z,2.28
2024-01-22T05:15:05.528Z,5.40
2024-01-22T05:17:33.397Z,4.25
2024-01-22T05:20:00.526Z,2.80
2024-01-22T05:22:27.142Z,4.63
2024-01-22T05:24:54.494Z,4.03
2024-01-22T05:27:21.090Z,2.17
2024-01-22T05:29:47.700Z,1.80
2024-01-22T05:32:14.618Z,2.78
2024-01-22T05:34:41.194Z,2.67
2024-01-22T05:37:10.570Z,4.22
2024-01-22T05:39:37.465Z,2.60
2024-01-22T05:42:04.923Z,2.13
2024-01-22T05:44:31.967Z,1.48
2024-01-22T05:46:58.582Z,2.47
2024-01-22T05:49:27.861Z,1.92
2024-01-22T05:51:56.193Z,1.85
2024-01-22T05:54:22.755Z,3.53
2024-01-22T05:56:49.358Z,2.85
2024-01-22T05:59:15.928Z,2.38
2024-01-22T06:01:42.435Z,2.92
2024-01-22T06:04:09.121Z,1.42
2024-01-22T06:06:35.896Z,0.70
2024-01-22T06:09:02.591Z,2.30
2024-01-22T06:11:31.553Z,2.47
2024-01-22T06:14:02.178Z,1.20
2024-01-22T06:16:29.889Z,1.48
2024-01-22T06:18:56.619Z,0.60
2024-01-22T06:21:23.528Z,2.70
2024-01-22T06:23:50.146Z,1.20
2024-01-22T06:26:18.569Z,2.80
2024-01-22T06:28:45.436Z,0.77
2024-01-22T06:31:12.015Z,1.02
2024-01-22T06:33:38.951Z,1.20
2024-01-22T06:36:07.780Z,1.60
2024-01-22T06:38:35.381Z,0.85
2024-01-22T06:41:01.965Z,2.30
2024-01-22T06:43:28.543Z,0.82
2024-01-22T06:45:55.073Z,1.27
2024-01-22T06:48:22.236Z,1.35
2024-01-22T06:50:49.018Z,0.82
2024-01-22T06:53:15.653Z,1.00
2024-01-22T06:55:42.330Z,1.10
2024-01-22T06:58:08.924Z,1.33
2024-01-22T07:00:37.699Z,1.38
2024-01-22T07:03:05.525Z,2.88
2024-01-22T07:05:33.830Z,3.42
2024-01-22T07:08:00.466Z,1.52
2024-01-22T07:10:27.037Z,2.42
2024-01-22T07:12:53.629Z,1.90
2024-01-22T07:15:20.891Z,0.93
2024-01-22T07:17:47.915Z,2.45
2024-01-22T07:20:17.865Z,2.80
2024-01-22T07:22:48.150Z,1.38
2024-01-22T07:25:17.334Z,2.90
2024-01-22T07:27:46.161Z,1.48
2024-01-22T07:30:14.053Z,1.73
2024-01-22T07:32:42.727Z,1.42
2024-01-22T07:35:14.414Z,1.98
2024-01-22T07:37:46.260Z,2.30
2024-01-22T07:40:13.847Z,1.92
2024-01-22T07:42:42.548Z,1.77
2024-01-22T07:45:10.758Z,2.78
2024-01-22T07:47:37.747Z,1.40
2024-01-22T07:50:11.740Z,1.42
2024-01-22T07:52:39.178Z,1.98
2024-01-22T07:55:07.526Z,1.52
2024-01-22T07:57:34.655Z,1.38
2024-01-22T08:00:01.975Z,1.83
2024-01-22T08:02:28.601Z,1.60
2024-01-22T08:04:55.182Z,1.45
2024-01-22T08:07:23.792Z,1.17
2024-01-22T08:09:50.444Z,2.05
2024-01-22T08:12:17.256Z,2.35
2024-01-22T08:14:44.047Z,1.92
2024-01-22T08:17:10.801Z,1.77
2024-01-22T08:19:37.511Z,1.65
2024-01-22T08:22:04.644Z,1.02
2024-01-22T08:24:32.237Z,1.00
2024-01-22T08:26:58.992Z,2.60
2024-01-22T08:29:25.541Z,1.48
2024-01-22T08:31:52.302Z,2.75
2024-01-22T08:34:19.413Z,0.90
2024-01-22T08:36:46.160Z,2.85
2024-01-22T08:39:12.882Z,1.73
2024-01-22T08:41:39.590Z,1.95
2024-01-22T08:44:06.909Z,2.50
2024-01-22T08:46:34.443Z,2.40
2024-01-22T08:49:01.375Z,2.88
2024-01-22T08:51:29.207Z,1.30
2024-01-22T08:53:56.069Z,1.65
2024-01-22T08:56:22.596Z,3.08
2024-01-22T08:58:49.249Z,1.67
2024-01-22T09:01:15.855Z,1.50
2024-01-22T09:03:42.507Z,2.05
2024-01-22T09:06:09.166Z,3.40
2024-01-22T09:08:35.782Z,3.53
2024-01-22T09:11:03.498Z,4.60
2024-01-22T09:13:30.488Z,2.45
2024-01-22T09:15:58.822Z,5.70
2024-01-22T09:18:26.951Z,3.50
2024-01-22T09:20:54.388Z,5.60
2024-01-22T09:23:22.784Z,4.90
2024-01-22T09:25:49.480Z,9.02
2024-01-22T09:28:16.039Z,6.82
2024-01-22T09:30:42.828Z,5.80
2024-01-22T09:33:11.153Z,7.50
2024-01-22T09:35:42.424Z,5.60
2024-01-22T09:38:09.194Z,7.97
2024-01-22T09:40:36.047Z,5.75
2024-01-22T09:43:08.161Z,12.13
2024-01-22T09:45:35.253Z,4.25
2024-01-22T09:48:02.762Z,11.60
2024-01-22T09:50:29.696Z,5.65
2024-01-22T09:53:01.676Z,6.50
2024-01-22T09:55:28.389Z,8.70
2024-01-22T09:57:59.620Z,3.58
2024-01-22T10:00:28.204Z,3.58
2024-01-22T10:02:57.652Z,4.43
2024-01-22T10:05:24.617Z,5.38
2024-01-22T10:07:51.190Z,7.53
2024-01-22T10:10:20.345Z,5.13
2024-01-22T10:13:01.110Z,5.63
2024-01-22T10:15:30.804Z,4.07
2024-01-22T10:18:16.749Z,4.30
2024-01-22T10:20:46.167Z,4.30
2024-01-22T10:23:14.322Z,6.93
2024-01-22T10:25:41.544Z,7.78
2024-01-22T10:28:18.384Z,3.75
2024-01-22T10:30:46.386Z,4.18
2024-01-22T10:33:17.817Z,4.72
2024-01-22T10:35:47.340Z,3.50
2024-01-22T10:38:20.308Z,4.40
2024-01-22T10:40:48.437Z,4.43
2024-01-22T10:43:27.563Z,4.45
2024-01-22T10:45:56.320Z,9.02
2024-01-22T10:48:36.917Z,3.95
2024-01-22T10:51:07.835Z,3.60
2024-01-22T10:53:35.905Z,4.03
2024-01-22T10:56:07.978Z,3.90
2024-01-22T10:58:43.215Z,3.67
2024-01-22T11:01:19.615Z,5.32
2024-01-22T11:04:06.129Z,6.47
2024-01-22T11:06:38.091Z,7.75
2024-01-22T11:09:06.097Z,4.25
2024-01-22T11:11:36.577Z,2.47
2024-01-22T11:14:03.807Z,2.70
2024-01-22T11:16:31.525Z,3.40
2024-01-22T11:19:04.242Z,7.78
2024-01-22T11:21:36.137Z,6.18
2024-01-22T11:24:24.724Z,5.75
2024-01-22T11:26:52.082Z,2.88
2024-01-22T11:29:27.482Z,4.40
2024-01-22T11:31:55.132Z,3.50
2024-01-22T11:34:42.151Z,3.35
2024-01-22T11:37:10.548Z,3.15
2024-01-22T11:39:40.535Z,3.92
2024-01-22T11:42:20.212Z,3.10
2024-01-22T11:44:50.411Z,4.95
2024-01-22T11:47:19.983Z,2.17
2024-01-22T11:49:46.900Z,3.75
2024-01-22T11:52:14.527Z,4.80
2024-01-22T11:54:57.383Z,4.65
2024-01-22T11:57:27.110Z,6.07
2024-01-22T12:00:20.597Z,3.55
2024-01-22T12:02:48.127Z,5.07
2024-01-22T12:05:19.699Z,4.40
2024-01-22T12:07:48.907Z,4.85
2024-01-22T12:10:23.820Z,5.15
2024-01-22T12:13:09.382Z,4.78
2024-01-22T12:15:36.175Z,8.60
2024-01-22T12:18:04.321Z,6.88
2024-01-22T12:20:31.733Z,9.50
2024-01-22T12:23:00.460Z,7.45
2024-01-22T12:25:35.643Z,6.07
2024-01-22T12:28:20.925Z,8.43
2024-01-22T12:30:48.766Z,11.05
2024-01-22T12:33:29.085Z,10.20
2024-01-22T12:36:11.663Z,9.65
2024-01-22T12:38:52.761Z,9.18
2024-01-22T12:41:21.330Z,10.63
2024-01-22T12:43:48.385Z,10.48
2024-01-22T12:46:20.661Z,9.35
2024-01-22T12:48:48.584Z,11.82
2024-01-22T12:51:17.926Z,9.55
2024-01-22T12:53:48.136Z,10.43
2024-01-22T12:56:16.332Z,16.30
2024-01-22T12:58:43.317Z,12.70
2024-01-22T13:01:11.829Z,11.68
2024-01-22T13:03:39.585Z,8.93
2024-01-22T13:06:06.984Z,11.60
2024-01-22T13:08:35.862Z,11.80
2024-01-22T13:11:03.121Z,9.82
2024-01-22T13:13:30.101Z,12.95
2024-01-22T13:16:11.667Z,9.27
2024-01-22T13:18:46.120Z,10.10
2024-01-22T13:21:14.854Z,13.18
2024-01-22T13:23:42.177Z,12.55
2024-01-22T13:26:10.284Z,16.70
2024-01-22T13:28:37.469Z,12.02
2024-01-22T13:31:04.398Z,10.20
2024-01-22T13:33:31.296Z,18.58
2024-01-22T13:35:58.652Z,12.77
2024-01-22T13:38:27.166Z,12.40
2024-01-22T13:40:53.933Z,16.73
2024-01-22T13:43:20.523Z,17.38
2024-01-22T13:45:47.777Z,18.00
2024-01-22T13:48:15.418Z,17.05
2024-01-22T13:50:43.051Z,15.32
2024-01-22T13:53:11.570Z,18.75
2024-01-22T13:55:38.168Z,13.90
2024-01-22T13:58:07.259Z,13.52
2024-01-22T14:03:05.936Z,17.25
2024-01-22T14:05:32.678Z,13.95
2024-01-22T14:08:00.538Z,21.10
2024-01-22T14:10:27.599Z,16.02
2024-01-22T14:12:54.182Z,20.30
2024-01-22T14:15:21.120Z,16.55
2024-01-22T14:17:47.735Z,22.98
2024-01-22T14:20:14.484Z,18.80
2024-01-22T14:22:41.231Z,14.25
2024-01-22T14:25:08.840Z,16.60
2024-01-22T14:27:35.584Z,13.18
2024-01-22T14:30:02.748Z,16.77
2024-01-22T14:32:32.170Z,20.73
2024-01-22T14:35:00.105Z,25.95
2024-01-22T14:37:27.179Z,25.15
2024-01-22T14:39:53.874Z,16.23
2024-01-22T14:42:21.576Z,18.35
2024-01-22T14:44:48.424Z,20.08
2024-01-22T14:47:15.132Z,17.15
2024-01-22T14:49:41.800Z,18.10
2024-01-22T14:52:08.382Z,23.00
2024-01-22T14:54:35.195Z,17.95
2024-01-22T14:57:01.763Z,19.13
2024-01-22T14:59:28.446Z,24.55
2024-01-22T15:01:55.086Z,21.52
2024-01-22T15:04:21.728Z,20.90
2024-01-22T15:06:51.076Z,18.55
2024-01-22T15:09:20.338Z,19.38
2024-01-22T15:11:48.074Z,15.45
2024-01-22T15:14:17.027Z,16.33
2024-01-22T15:16:48.257Z,17.98
2024-01-22T15:19:15.933Z,17.23
2024-01-22T15:21:43.885Z,17.55
2024-01-22T15:24:12.595Z,18.83
2024-01-22T15:26:39.384Z,18.20
2024-01-22T15:29:07.214Z,24.38
2024-01-22T15:31:34.785Z,15.60
2024-01-22T15:34:02.773Z,18.10
2024-01-22T15:36:29.778Z,15.98
2024-01-22T15:38:56.637Z,22.08
2024-01-22T15:41:23.692Z,13.50
2024-01-22T15:43:50.453Z,21.25
2024-01-22T15:46:17.101Z,27.05
2024-01-22T15:48:46.221Z,21.45
2024-01-22T15:51:13.011Z,18.38
2024-01-22T15:53:39.664Z,21.45
2024-01-22T15:56:06.806Z,17.55
2024-01-22T15:58:33.476Z,22.67
2024-01-22T16:01:00.354Z,15.43
2024-01-22T16:03:27.139Z,15.20
2024-01-22T16:05:54.363Z,17.75
2024-01-22T16:08:21.984Z,20.08
2024-01-22T16:10:48.759Z,25.83
2024-01-22T16:13:16.449Z,15.82
2024-01-22T16:15:43.673Z,11.45
2024-01-22T16:18:10.298Z,14.10
2024-01-22T16:20:36.965Z,22.02
2024-01-22T16:23:03.807Z,15.02
2024-01-22T16:25:31.208Z,25.10
2024-01-22T16:27:58.492Z,17.25
2024-01-22T16:30:25.899Z,21.58
2024-01-22T16:32:52.556Z,19.15
2024-01-22T16:35:19.577Z,22.63
2024-01-22T16:37:46.164Z,28.58
2024-01-22T16:40:16.812Z,24.15
2024-01-22T16:42:43.905Z,16.15
2024-01-22T16:45:10.891Z,24.98
2024-01-22T16:47:37.513Z,23.65
2024-01-22T16:50:05.214Z,24.70
2024-01-22T16:52:31.911Z,24.42
2024-01-22T16:54:58.564Z,20.13
2024-01-22T16:57:25.311Z,21.35
2024-01-22T16:59:52.021Z,23.80
2024-01-22T17:02:20.426Z,22.67
2024-01-22T17:04:47.237Z,21.02
2024-01-22T17:07:15.778Z,17.98
2024-01-22T17:09:42.536Z,24.73
2024-01-22T17:12:10.178Z,26.17
2024-01-22T17:14:37.536Z,22.83
2024-01-22T17:17:07.419Z,16.08
2024-01-22T17:19:34.106Z,19.45
2024-01-22T17:22:00.745Z,16.92
2024-01-22T17:24:27.965Z,22.25
2024-01-22T17:26:54.758Z,17.20
2024-01-22T17:29:21.593Z,19.20
2024-01-22T17:31:48.308Z,22.75
2024-01-22T17:34:15.698Z,20.25
2024-01-22T17:36:42.417Z,12.88
2024-01-22T17:39:12.134Z,21.70
2024-01-22T17:41:39.578Z,26.05
2024-01-22T17:44:07.473Z,21.48
2024-01-22T17:46:34.946Z,21.70
2024-01-22T17:49:02.186Z,19.67
2024-01-22T17:51:28.853Z,19.73
2024-01-22T17:53:55.400Z,23.27
2024-01-22T17:56:22.166Z,23.88
2024-01-22T17:58:48.833Z,23.55
2024-01-22T18:01:15.569Z,19.95
2024-01-22T18:03:42.845Z,18.02
2024-01-22T18:06:09.886Z,22.90
2024-01-22T18:08:36.630Z,18.98
2024-01-22T18:11:03.314Z,20.02
2024-01-22T18:13:29.983Z,21.63
2024-01-22T18:15:57.954Z,17.88
2024-01-22T18:18:24.703Z,19.10
2024-01-22T18:20:51.382Z,23.27
2024-01-22T18:23:17.981Z,18.65
2024-01-22T18:25:44.764Z,20.63
2024-01-22T18:28:13.376Z,20.60
2024-01-22T18:30:40.743Z,25.02
2024-01-22T18:33:08.291Z,17.75
2024-01-22T18:35:34.970Z,18.00
2024-01-22T18:38:01.831Z,21.70
2024-01-22T18:40:28.423Z,23.00
2024-01-22T18:42:55.395Z,19.90
2024-01-22T18:45:23.355Z,21.60
2024-01-22T18:47:50.256Z,21.67
2024-01-22T18:50:16.983Z,21.13
2024-01-22T18:52:45.072Z,22.90
2024-01-22T18:55:12.124Z,24.92
2024-01-22T18:57:38.911Z,18.95
2024-01-22T19:00:07.725Z,26.50
2024-01-22T19:02:34.405Z,24.90
2024-01-22T19:05:01.201Z,27.00
2024-01-22T19:07:27.987Z,22.60
2024-01-22T19:09:54.815Z,25.77
2024-01-22T19:12:21.388Z,22.75
2024-01-22T19:14:47.973Z,21.52
2024-01-22T19:17:14.578Z,20.70
2024-01-22T19:19:42.541Z,24.90
2024-01-22T19:22:09.370Z,19.05
2024-01-22T19:24:35.995Z,20.33
2024-01-22T19:27:02.734Z,24.55
2024-01-22T19:29:29.631Z,30.13
2024-01-22T19:31:56.253Z,32.60
2024-01-22T19:34:22.898Z,27.13
2024-01-22T19:36:49.676Z,28.77
2024-01-22T19:39:16.469Z,23.90
2024-01-22T19:41:44.169Z,30.20
2024-01-22T19:44:10.762Z,14.32
2024-01-22T19:46:37.304Z,21.42
2024-01-22T19:49:04.375Z,19.10
2024-01-22T19:51:31.065Z,25.02
2024-01-22T19:53:57.675Z,21.05
2024-01-22T19:56:24.537Z,22.52
2024-01-22T19:58:51.216Z,16.30
2024-01-22T20:01:17.861Z,17.15
2024-01-22T20:03:44.669Z,26.13
2024-01-22T20:06:11.686Z,17.40
2024-01-22T20:08:38.288Z,19.20
2024-01-22T20:11:04.818Z,25.98
2024-01-22T20:13:32.385Z,22.20
2024-01-22T20:15:59.066Z,24.48
2024-01-22T20:18:25.898Z,17.67
2024-01-22T20:20:52.719Z,20.65
2024-01-22T20:23:19.448Z,18.27
2024-01-22T20:25:46.069Z,25.33
2024-01-22T20:28:13.780Z,15.90
2024-01-22T20:30:40.493Z,12.50
2024-01-22T20:33:07.218Z,13.52
2024-01-22T20:35:35.275Z,20.88
2024-01-22T20:38:02.543Z,15.65
2024-01-22T20:40:29.156Z,16.35
2024-01-22T20:42:55.764Z,18.50
2024-01-22T20:45:22.414Z,18.00
2024-01-22T20:47:56.606Z,15.82
2024-01-22T20:50:23.266Z,19.00
2024-01-22T20:52:49.783Z,18.83
2024-01-22T20:55:16.598Z,18.45
2024-01-22T20:57:46.018Z,22.73
2024-01-22T21:00:13.624Z,18.58
2024-01-22T21:02:40.992Z,22.13
2024-01-22T21:05:09.111Z,29.27
2024-01-22T21:07:36.588Z,17.60
2024-01-22T21:10:04.831Z,17.88
2024-01-22T21:12:31.829Z,19.52
2024-01-22T21:14:59.155Z,22.35
2024-01-22T21:17:26.467Z,21.33
2024-01-22T21:19:53.199Z,15.63
2024-01-22T21:22:21.647Z,17.40
2024-01-22T21:24:48.323Z,21.15
2024-01-22T21:27:15.401Z,26.08
2024-01-22T21:29:42.143Z,18.42
2024-01-22T21:32:08.772Z,15.98
2024-01-22T21:34:35.456Z,28.45
2024-01-22T21:37:02.111Z,22.23
2024-01-22T21:39:28.798Z,20.42
2024-01-22T21:41:55.728Z,25.30
2024-01-22T21:44:22.361Z,22.42
2024-01-22T21:46:53.384Z,19.90
2024-01-22T21:49:20.015Z,22.27
2024-01-22T21:51:46.694Z,20.23
2024-01-22T21:54:13.279Z,24.88
2024-01-22T21:56:40.159Z,22.73
2024-01-22T21:59:10.477Z,24.33
2024-01-22T22:01:37.812Z,22.08
2024-01-22T22:04:04.853Z,26.60
2024-01-22T22:06:31.839Z,17.38
2024-01-22T22:08:58.760Z,22.27
2024-01-22T22:11:26.844Z,23.60
2024-01-22T22:13:54.264Z,22.85
2024-01-22T22:16:20.955Z,22.38
2024-01-22T22:18:49.225Z,19.98
2024-01-22T22:21:17.690Z,17.27
2024-01-22T22:23:44.518Z,20.63
2024-01-22T22:26:11.343Z,20.40
2024-01-22T22:28:37.886Z,20.60
2024-01-22T22:31:04.809Z,22.20
2024-01-22T22:33:31.561Z,23.65
2024-01-22T22:35:58.498Z,15.30
2024-01-22T22:38:25.142Z,27.13
2024-01-22T22:40:51.802Z,17.20
2024-01-22T22:43:22.099Z,21.08
2024-01-22T22:45:48.751Z,21.00
2024-01-22T22:48:15.884Z,24.08
2024-01-22T22:50:42.658Z,27.48
2024-01-22T22:53:09.312Z,26.33
2024-01-22T22:55:37.726Z,25.95
2024-01-22T22:58:04.391Z,17.10
2024-01-22T23:00:31.086Z,26.55
2024-01-22T23:02:59.474Z,23.58
2024-01-22T23:05:26.344Z,29.38
2024-01-22T23:07:53.044Z,32.58
2024-01-22T23:10:19.616Z,23.67
2024-01-22T23:12:46.249Z,20.40
2024-01-22T23:15:13.164Z,23.55
2024-01-22T23:17:39.905Z,26.80
2024-01-22T23:20:07.811Z,19.98
2024-01-22T23:22:34.415Z,27.45
2024-01-22T23:25:01.034Z,22.85
2024-01-22T23:27:27.624Z,15.27
2024-01-22T23:29:54.253Z,19.48
2024-01-22T23:32:20.956Z,20.45
2024-01-22T23:34:47.547Z,22.73
2024-01-22T23:37:14.440Z,24.35
2024-01-22T23:39:41.132Z,26.92
2024-01-22T23:42:07.961Z,23.73
2024-01-22T23:44:34.912Z,18.98
2024-01-22T23:47:01.522Z,20.13
2024-01-22T23:49:29.779Z,23.48
2024-01-22T23:51:56.488Z,16.27
2024-01-22T23:54:23.071Z,28.92
2024-01-22T23:56:49.751Z,20.80
2024-01-22T23:59:16.380Z,22.45
